Time;durP1;ratioP1;P1;durP2;ratioP2;P2;SDS_P1;SDS_P2;PMS_P1;PMS_P2;Temp;Humidity;BMP_temperature;BMP_pressure;BME280_temperature;BME280_humidity;BME280_pressure;Samples;Min_cycle;Max_cycle;Signal;HPM_P1;HPM_P2
2022/10/24 00:00:07;;;;;;;7.07;2.22;;;;;;;17.77;77.79;99099.72;341163;29;1048;-80
2022/10/24 00:00:19;;;;;;;7.65;2.47;;;;;;;17.76;77.78;99098.00;341594;28;1185;-80
2022/10/24 00:00:31;;;;;;;8.07;2.80;;;;;;;17.77;77.99;99099.72;342456;28;1187;-80
2022/10/24 00:00:45;;;;;;;7.22;2.42;;;;;;;17.76;78.08;99103.28;342432;28;1031;-80
2022/10/24 00:00:58;;;;;;;5.45;2.45;;;;;;;17.77;77.91;99099.72;343541;28;1650;-80
2022/10/24 00:01:12;;;;;;;6.00;2.40;;;;;;;17.76;77.75;99092.75;342742;28;1822;-80
2022/10/24 00:01:24;;;;;;;7.15;2.30;;;;;;;17.77;77.58;99097.06;343690;28;1449;-80
2022/10/24 00:01:36;;;;;;;7.45;2.33;;;;;;;17.78;77.54;99101.38;342366;28;1591;-79
2022/10/24 00:01:48;;;;;;;7.68;2.33;;;;;;;17.76;77.55;99093.59;343606;28;1266;-79
2022/10/24 00:02:00;;;;;;;9.80;2.45;;;;;;;17.76;77.46;99092.75;342801;28;1240;-79
2022/10/24 00:02:12;;;;;;;9.68;2.50;;;;;;;17.77;77.61;99095.28;344784;28;1237;-79
2022/10/24 00:02:24;;;;;;;6.80;2.20;;;;;;;17.76;77.47;99092.75;343511;28;1226;-79
2022/10/24 00:02:36;;;;;;;6.20;2.00;;;;;;;17.76;77.67;99092.75;343670;28;1054;-79
2022/10/24 00:02:48;;;;;;;6.93;2.20;;;;;;;17.74;77.62;99090.22;343307;28;1594;-79
2022/10/24 00:03:00;;;;;;;6.43;2.17;;;;;;;17.74;77.85;99090.22;343772;28;1752;-79
2022/10/24 00:03:13;;;;;;;5.13;2.15;;;;;;;17.76;77.55;99098.00;343563;28;1106;-79
2022/10/24 00:03:25;;;;;;;4.93;2.20;;;;;;;17.76;77.76;99098.00;344773;28;1180;-79
2022/10/24 00:03:37;;;;;;;5.07;2.20;;;;;;;17.76;77.52;99095.38;345285;28;1182;-79
2022/10/24 00:03:49;;;;;;;5.32;2.15;;;;;;;17.76;77.76;99090.97;345175;28;1107;-79
2022/10/24 00:04:02;;;;;;;4.82;2.10;;;;;;;17.75;77.61;99091.91;345551;28;1039;-79
2022/10/24 00:04:14;;;;;;;6.50;2.10;;;;;;;17.75;77.69;99086.66;345989;28;1572;-79
2022/10/24 00:04:26;;;;;;;7.07;2.28;;;;;;;17.74;77.64;99090.22;344959;28;1051;-79
2022/10/24 00:04:39;;;;;;;6.63;2.50;;;;;;;17.73;77.77;99087.72;344788;28;1416;-79
2022/10/24 00:04:51;;;;;;;6.38;2.65;;;;;;;17.70;77.90;99087.94;345226;28;1078;-79
2022/10/24 00:05:04;;;;;;;7.28;2.50;;;;;;;17.69;77.83;99076.59;345231;28;1241;-79
2022/10/24 00:05:15;;;;;;;8.75;2.45;;;;;;;17.68;77.94;99079.31;344873;28;1038;-79
2022/10/24 00:05:27;;;;;;;9.05;2.25;;;;;;;17.67;77.79;99078.50;343485;28;1244;-79
2022/10/24 00:05:44;;;;;;;8.55;2.20;;;;;;;17.69;77.94;99083.66;343178;28;1517;-79
2022/10/24 00:05:56;;;;;;;5.70;2.10;;;;;;;17.70;77.89;99093.19;343820;28;1309;-79
2022/10/24 00:06:10;;;;;;;4.40;2.05;;;;;;;17.70;77.74;99090.56;345008;28;1067;-79
2022/10/24 00:06:22;;;;;;;6.32;2.00;;;;;;;17.72;77.88;99093.91;344875;28;1191;-79
2022/10/24 00:06:34;;;;;;;7.78;1.80;;;;;;;17.69;77.94;99094.16;345240;28;1079;-79
2022/10/24 00:06:46;;;;;;;8.20;1.83;;;;;;;17.71;77.98;99094.88;345048;28;1117;-79
2022/10/24 00:06:58;;;;;;;4.20;1.90;;;;;;;17.69;77.84;99099.41;344953;28;1170;-79
2022/10/24 00:07:10;;;;;;;5.35;1.95;;;;;;;17.65;78.03;99092.69;344790;28;1056;-79
2022/10/24 00:07:23;;;;;;;5.82;2.10;;;;;;;17.61;77.84;99088.59;343633;28;1197;-79
2022/10/24 00:07:35;;;;;;;5.70;2.25;;;;;;;17.62;77.82;99085.00;343670;28;1036;-80
2022/10/24 00:07:49;;;;;;;5.85;2.28;;;;;;;17.62;78.01;99091.09;342725;28;1521;-79
2022/10/24 00:08:01;;;;;;;7.30;2.22;;;;;;;17.63;77.75;99086.72;341554;28;1684;-79
2022/10/24 00:08:14;;;;;;;7.28;2.22;;;;;;;17.61;77.73;99093.84;341928;28;1584;-79
2022/10/24 00:08:26;;;;;;;7.10;2.15;;;;;;;17.60;77.90;99092.16;342563;28;1458;-79
2022/10/24 00:08:40;;;;;;;4.60;2.20;;;;;;;17.58;77.88;99093.09;343387;28;1082;-79
2022/10/24 00:08:52;;;;;;;4.22;2.30;;;;;;;17.59;78.04;99086.06;343065;28;1790;-79
2022/10/24 00:09:04;;;;;;;4.55;2.20;;;;;;;17.60;77.76;99086.91;342412;28;1104;-79
2022/10/24 00:09:16;;;;;;;4.45;2.10;;;;;;;17.58;78.16;99090.47;342299;28;1170;-79
2022/10/24 00:09:28;;;;;;;4.32;2.00;;;;;;;17.60;77.98;99086.91;344441;28;1176;-79
2022/10/24 00:09:39;;;;;;;5.03;1.90;;;;;;;17.60;77.85;99086.91;344676;28;1256;-80
2022/10/24 00:09:52;;;;;;;5.60;1.75;;;;;;;17.60;77.90;99081.66;343057;28;1430;-80
2022/10/24 00:10:04;;;;;;;6.45;1.90;;;;;;;17.60;77.79;99093.00;343857;28;1265;-80
2022/10/24 00:10:17;;;;;;;5.68;2.08;;;;;;;17.57;78.09;99088.81;343134;28;1486;-80
2022/10/24 00:10:29;;;;;;;6.55;2.25;;;;;;;17.57;78.01;99087.97;343877;28;2081;-80
2022/10/24 00:10:46;;;;;;;6.80;2.30;;;;;;;17.50;78.16;99087.53;341052;28;3179;-79
2022/10/24 00:10:58;;;;;;;7.38;2.20;;;;;;;17.51;78.18;99091.03;342099;28;2016;-80
2022/10/24 00:11:14;;;;;;;9.15;2.25;;;;;;;17.51;77.92;99089.25;341902;28;2121;-80
2022/10/24 00:11:27;;;;;;;8.40;2.03;;;;;;;17.48;78.30;99092.06;342624;28;1956;-79
2022/10/24 00:11:40;;;;;;;7.82;2.30;;;;;;;17.49;78.50;99096.38;341340;28;1576;-79
2022/10/24 00:11:52;;;;;;;8.23;2.70;;;;;;;17.45;78.43;99088.84;340857;29;1099;-79
2022/10/24 00:12:05;;;;;;;7.63;2.55;;;;;;;17.43;78.50;99085.47;341161;29;1120;-79
2022/10/24 00:12:18;;;;;;;6.57;2.40;;;;;;;17.42;78.61;99086.41;340932;28;1635;-79
2022/10/24 00:12:31;;;;;;;6.03;2.40;;;;;;;17.41;78.50;99088.22;342115;28;1637;-79
2022/10/24 00:12:43;;;;;;;7.35;2.25;;;;;;;17.41;78.71;99077.69;342422;28;1187;-79
2022/10/24 00:12:55;;;;;;;6.30;2.08;;;;;;;17.38;78.79;99083.16;339915;29;1585;-79
2022/10/24 00:13:07;;;;;;;4.88;2.15;;;;;;;17.38;78.82;99085.78;342167;28;1076;-79
2022/10/24 00:13:19;;;;;;;5.57;2.17;;;;;;;17.39;78.89;99089.28;341422;28;1691;-80
2022/10/24 00:13:32;;;;;;;7.57;2.22;;;;;;;17.38;78.72;99091.03;340996;29;1700;-80
2022/10/24 00:13:44;;;;;;;8.98;2.25;;;;;;;17.37;78.60;99092.00;339423;29;1200;-80
2022/10/24 00:13:56;;;;;;;7.47;2.03;;;;;;;17.39;78.60;99092.72;339657;29;932;-80
2022/10/24 00:14:08;;;;;;;5.88;2.03;;;;;;;17.39;78.39;99099.78;339615;29;1190;-79
2022/10/24 00:14:20;;;;;;;7.55;2.25;;;;;;;17.34;78.72;99102.69;341073;28;1942;-79
2022/10/24 00:14:34;;;;;;;8.70;2.40;;;;;;;17.33;78.90;99101.88;340974;29;1684;-79
2022/10/24 00:14:46;;;;;;;7.32;2.30;;;;;;;17.32;78.84;99101.97;340900;28;1431;-79
2022/10/24 00:14:58;;;;;;;7.03;2.20;;;;;;;17.27;79.06;99102.28;340459;29;1801;-79
2022/10/24 00:15:11;;;;;;;8.60;2.38;;;;;;;17.23;79.46;99102.63;340249;28;1556;-79
2022/10/24 00:15:23;;;;;;;8.95;2.30;;;;;;;17.20;79.71;99100.19;340903;28;1613;-79
2022/10/24 00:15:35;;;;;;;8.13;2.25;;;;;;;17.22;79.77;99098.31;342940;28;1165;-79
2022/10/24 00:15:48;;;;;;;7.25;2.45;;;;;;;17.24;79.55;99101.66;343112;28;1552;-79
2022/10/24 00:16:00;;;;;;;8.45;2.40;;;;;;;17.25;79.46;99098.94;343610;28;1212;-79
2022/10/24 00:16:12;;;;;;;9.93;2.53;;;;;;;17.26;79.41;99100.59;342955;28;1606;-79
2022/10/24 00:16:26;;;;;;;7.93;2.33;;;;;;;17.26;79.48;99094.50;342702;28;1530;-79
2022/10/24 00:16:38;;;;;;;8.07;2.30;;;;;;;17.27;79.43;99102.28;343556;28;1087;-79
2022/10/24 00:16:50;;;;;;;11.02;2.58;;;;;;;17.24;79.32;99101.66;343188;28;1409;-79
2022/10/24 00:17:02;;;;;;;10.65;2.58;;;;;;;17.24;79.77;99101.66;344236;28;1230;-79
2022/10/24 00:17:14;;;;;;;6.53;2.30;;;;;;;17.23;79.78;99094.75;344708;28;1461;-79
2022/10/24 00:17:26;;;;;;;5.20;2.20;;;;;;;17.24;79.60;99096.41;344078;28;1572;-79
2022/10/24 00:17:38;;;;;;;6.00;2.42;;;;;;;17.26;79.49;99099.78;345000;28;1083;-79
2022/10/24 00:17:50;;;;;;;5.45;2.40;;;;;;;17.27;79.63;99093.59;344063;28;1722;-79
2022/10/24 00:18:03;;;;;;;7.63;2.40;;;;;;;17.25;79.74;99087.59;344037;28;1457;-79
2022/10/24 00:18:15;;;;;;;9.05;2.38;;;;;;;17.24;80.02;99088.53;345048;28;1551;-79
2022/10/24 00:18:27;;;;;;;8.50;2.40;;;;;;;17.26;79.91;99089.25;344837;28;1962;-79
2022/10/24 00:18:39;;;;;;;6.38;2.53;;;;;;;17.25;79.77;99082.34;344853;28;1531;-79
2022/10/24 00:18:52;;;;;;;5.13;2.45;;;;;;;17.24;79.77;99083.28;344919;28;1058;-79
2022/10/24 00:19:04;;;;;;;5.68;2.33;;;;;;;17.21;79.83;99081.72;344965;28;1114;-79
2022/10/24 00:19:16;;;;;;;7.40;2.28;;;;;;;17.21;79.91;99086.13;342736;28;1738;-79
2022/10/24 00:19:28;;;;;;;9.10;2.30;;;;;;;17.22;79.81;99086.00;343965;28;1722;-79
2022/10/24 00:19:40;;;;;;;8.63;2.08;;;;;;;17.20;79.85;99089.69;343646;28;1118;-79
2022/10/24 00:19:53;;;;;;;9.13;2.30;;;;;;;17.20;79.86;99095.78;343804;28;1105;-79
2022/10/24 00:20:06;;;;;;;9.38;2.30;;;;;;;17.17;80.04;99099.47;342935;28;1545;-79
2022/10/24 00:20:18;;;;;;;7.43;2.22;;;;;;;17.16;80.00;99105.66;343110;28;1723;-79
2022/10/24 00:20:30;;;;;;;7.65;2.10;;;;;;;17.12;79.98;99106.81;343805;28;1246;-79
2022/10/24 00:20:43;;;;;;;8.20;2.10;;;;;;;17.08;80.24;99110.63;343070;28;1944;-79
2022/10/24 00:20:55;;;;;;;10.00;2.13;;;;;;;17.09;80.32;99109.66;343039;28;1545;-79
2022/10/24 00:21:08;;;;;;;10.00;2.33;;;;;;;17.12;80.14;99109.44;343649;28;1034;-79
2022/10/24 00:21:20;;;;;;;9.13;2.50;;;;;;;17.13;80.31;99105.88;342182;28;1722;-79
2022/10/24 00:21:32;;;;;;;6.50;2.33;;;;;;;17.14;80.26;99097.06;343567;28;1750;-79
2022/10/24 00:21:44;;;;;;;6.95;2.28;;;;;;;17.17;79.81;99096.84;342241;28;1099;-79
2022/10/24 00:21:56;;;;;;;6.57;2.35;;;;;;;17.18;80.06;99095.03;341819;28;1266;-79
2022/10/24 00:22:08;;;;;;;5.88;2.22;;;;;;;17.17;79.96;99091.56;342390;28;1207;-79
2022/10/24 00:22:20;;;;;;;8.00;2.42;;;;;;;17.20;79.89;99085.25;343342;28;1643;-79
2022/10/24 00:22:32;;;;;;;7.25;2.50;;;;;;;17.23;80.04;99094.75;342978;28;3265;-79
2022/10/24 00:22:44;;;;;;;5.72;2.50;;;;;;;17.23;80.09;99092.13;342029;28;5217;-79
2022/10/24 00:22:56;;;;;;;6.03;2.30;;;;;;;17.22;80.14;99095.69;341356;28;1706;-79
2022/10/24 00:23:08;;;;;;;9.30;2.50;;;;;;;17.21;80.28;99097.47;342756;28;1200;-79
2022/10/24 00:23:20;;;;;;;11.75;2.83;;;;;;;17.25;79.95;99098.09;342144;28;1565;-79
2022/10/24 00:23:32;;;;;;;9.20;2.67;;;;;;;17.26;80.03;99091.88;344906;28;1702;-79
2022/10/24 00:23:45;;;;;;;5.90;2.58;;;;;;;17.28;79.83;99097.88;342852;28;1206;-79
2022/10/24 00:23:57;;;;;;;6.50;2.22;;;;;;;17.29;79.97;99089.91;343670;28;1139;-79
2022/10/24 00:24:09;;;;;;;7.32;2.20;;;;;;;17.30;79.61;99095.97;342388;28;1150;-79
2022/10/24 00:24:21;;;;;;;5.90;2.10;;;;;;;17.32;79.86;99088.84;341741;28;1547;-79
2022/10/24 00:24:33;;;;;;;7.50;2.08;;;;;;;17.33;79.52;99091.38;343035;28;2368;-79
2022/10/24 00:24:45;;;;;;;7.00;1.88;;;;;;;17.35;79.66;99094.72;342139;28;1164;-79
2022/10/24 00:24:57;;;;;;;7.28;2.05;;;;;;;17.35;79.56;99093.88;342783;28;1075;-79
2022/10/24 00:25:09;;;;;;;7.65;2.10;;;;;;;17.37;79.53;99097.25;343565;28;1024;-79
2022/10/24 00:25:21;;;;;;;7.70;2.20;;;;;;;17.36;79.43;99092.94;343035;28;1560;-79
2022/10/24 00:25:33;;;;;;;6.20;2.17;;;;;;;17.37;79.29;99100.72;345074;28;1708;-79
2022/10/24 00:25:45;;;;;;;4.53;2.17;;;;;;;17.37;79.23;99095.47;343781;28;1039;-79
2022/10/24 00:26:00;;;;;;;4.47;2.10;;;;;;;17.35;79.36;99092.09;343579;28;1140;-79
2022/10/24 00:26:14;;;;;;;5.50;1.90;;;;;;;17.34;79.17;99092.19;343131;28;2056;-79
2022/10/24 00:26:26;;;;;;;6.85;1.98;;;;;;;17.31;79.18;99097.69;343787;28;1441;-79
2022/10/24 00:26:38;;;;;;;6.00;2.22;;;;;;;17.27;79.27;99098.84;345155;28;1074;-79
2022/10/24 00:26:51;;;;;;;6.15;2.20;;;;;;;17.26;79.35;99102.41;344930;28;1255;-79
2022/10/24 00:27:03;;;;;;;6.15;2.15;;;;;;;17.25;79.40;99103.34;343186;28;1063;-79
2022/10/24 00:27:15;;;;;;;5.80;2.10;;;;;;;17.25;79.32;99103.34;343978;28;1336;-79
2022/10/24 00:27:27;;;;;;;5.60;2.13;;;;;;;17.24;79.47;99096.41;342559;28;1269;-79
2022/10/24 00:27:39;;;;;;;5.90;2.15;;;;;;;17.23;79.30;99098.19;341531;28;1238;-79
2022/10/24 00:27:51;;;;;;;5.70;2.20;;;;;;;17.23;79.16;99094.75;343170;28;1549;-79
2022/10/24 00:28:03;;;;;;;5.95;2.08;;;;;;;17.23;79.48;99089.50;342937;28;1487;-79
2022/10/24 00:28:15;;;;;;;8.10;2.10;;;;;;;17.20;79.37;99089.69;343638;28;1698;-79
2022/10/24 00:28:28;;;;;;;8.88;2.20;;;;;;;17.19;79.28;99095.91;342871;28;1051;-79
2022/10/24 00:28:40;;;;;;;6.28;2.15;;;;;;;17.19;79.36;99090.66;343012;28;2408;-79
2022/10/24 00:28:52;;;;;;;6.95;2.17;;;;;;;17.20;79.35;99089.69;344450;28;1105;-79
2022/10/24 00:29:04;;;;;;;5.97;2.10;;;;;;;17.22;79.19;99086.00;345108;28;1275;-79
2022/10/24 00:29:17;;;;;;;6.38;2.10;;;;;;;17.22;79.43;99082.53;344435;28;1500;-78
2022/10/24 00:29:29;;;;;;;6.80;2.20;;;;;;;17.23;79.38;99084.25;343497;28;1892;-78
2022/10/24 00:29:41;;;;;;;6.20;2.05;;;;;;;17.21;79.32;99091.38;342991;28;1635;-79
2022/10/24 00:29:53;;;;;;;5.75;2.20;;;;;;;17.21;79.34;99086.97;343779;28;1558;-79
2022/10/24 00:30:05;;;;;;;6.38;2.30;;;;;;;17.20;79.44;99084.44;343635;28;1540;-79
2022/10/24 00:30:17;;;;;;;7.35;2.38;;;;;;;17.19;79.55;99088.03;343717;28;1405;-79
2022/10/24 00:30:29;;;;;;;8.02;2.30;;;;;;;17.17;79.74;99085.50;343590;28;1051;-78
2022/10/24 00:30:41;;;;;;;7.25;2.20;;;;;;;17.19;79.67;99093.28;343618;28;1056;-78
2022/10/24 00:30:53;;;;;;;4.95;1.95;;;;;;;17.21;79.47;99091.38;344426;28;729;-78
2022/10/24 00:31:06;;;;;;;4.63;2.03;;;;;;;17.19;79.60;99088.03;343756;28;1030;-79
2022/10/24 00:31:19;;;;;;;5.75;2.28;;;;;;;17.19;79.68;99093.28;343223;28;1504;-78
2022/10/24 00:31:31;;;;;;;7.20;2.80;;;;;;;17.18;79.52;99095.03;344746;28;1655;-79
2022/10/24 00:31:43;;;;;;;6.75;2.72;;;;;;;17.18;79.54;99087.16;343372;28;1428;-79
2022/10/24 00:31:55;;;;;;;5.97;2.30;;;;;;;17.19;79.71;99093.28;344766;28;1488;-79
2022/10/24 00:32:07;;;;;;;3.80;2.25;;;;;;;17.15;79.55;99087.38;345072;28;1087;-79
2022/10/24 00:32:19;;;;;;;7.18;2.33;;;;;;;17.11;79.46;99086.75;344307;28;1532;-79
2022/10/24 00:32:31;;;;;;;9.15;2.38;;;;;;;17.12;79.80;99087.59;345128;28;1670;-79
2022/10/24 00:32:43;;;;;;;8.53;2.50;;;;;;;17.12;79.86;99090.22;345284;28;1134;-79
2022/10/24 00:32:55;;;;;;;10.43;2.53;;;;;;;17.11;79.78;99080.66;344713;28;1533;-79
2022/10/24 00:33:07;;;;;;;8.07;2.13;;;;;;;17.11;79.82;99089.38;345283;28;977;-79
2022/10/24 00:33:19;;;;;;;6.72;2.10;;;;;;;17.11;79.77;99088.53;343645;28;1808;-79
2022/10/24 00:33:31;;;;;;;5.88;1.98;;;;;;;17.10;79.49;99090.34;343306;28;1481;-79
2022/10/24 00:33:44;;;;;;;6.32;2.30;;;;;;;17.12;79.69;99083.19;343802;28;1115;-79
2022/10/24 00:33:58;;;;;;;5.72;2.30;;;;;;;17.13;79.65;99084.84;343676;28;990;-79
2022/10/24 00:34:10;;;;;;;4.43;2.20;;;;;;;17.15;79.66;99082.13;343515;28;1178;-79
2022/10/24 00:34:22;;;;;;;7.43;2.30;;;;;;;17.15;79.65;99085.59;343716;28;1788;-79
2022/10/24 00:34:34;;;;;;;9.45;2.33;;;;;;;17.16;79.61;99084.66;344393;28;1880;-79
2022/10/24 00:34:46;;;;;;;10.68;2.17;;;;;;;17.18;79.70;99087.16;343319;28;1043;-79
2022/10/24 00:34:58;;;;;;;8.35;1.92;;;;;;;17.20;79.57;99087.06;343928;28;1160;-79
2022/10/24 00:35:10;;;;;;;7.82;1.98;;;;;;;17.19;79.62;99088.03;343992;28;1027;-79
2022/10/24 00:35:22;;;;;;;5.97;2.00;;;;;;;17.15;79.59;99090.84;343596;28;1774;-79
2022/10/24 00:35:34;;;;;;;6.32;2.08;;;;;;;17.13;79.50;99090.09;343431;28;1305;-79
2022/10/24 00:35:46;;;;;;;5.53;2.10;;;;;;;17.13;79.61;99090.09;343694;28;1218;-79
2022/10/24 00:35:58;;;;;;;7.13;2.13;;;;;;;17.08;79.63;99097.47;343448;28;926;-79
2022/10/24 00:36:15;;;;;;;7.32;2.10;;;;;;;17.05;79.81;99092.44;343979;28;1085;-79
2022/10/24 00:36:27;;;;;;;5.60;2.10;;;;;;;17.06;79.67;99094.09;343761;28;1540;-79
2022/10/24 00:36:39;;;;;;;6.30;2.10;;;;;;;17.05;79.65;99079.28;344589;28;1027;-79
2022/10/24 00:36:51;;;;;;;7.70;2.20;;;;;;;17.05;79.94;99097.69;343769;28;1265;-79
2022/10/24 00:37:04;;;;;;;7.90;2.15;;;;;;;17.06;79.79;99088.00;343133;28;1709;-79
2022/10/24 00:37:16;;;;;;;4.80;2.20;;;;;;;17.06;79.93;99094.09;344895;28;1433;-79
2022/10/24 00:37:28;;;;;;;5.72;2.33;;;;;;;17.06;79.91;99086.22;345148;28;1022;-79
2022/10/24 00:37:40;;;;;;;7.75;2.30;;;;;;;17.08;79.86;99086.13;345271;28;1059;-79
2022/10/24 00:37:52;;;;;;;8.63;2.38;;;;;;;17.05;79.86;99081.91;343299;28;1713;-79
2022/10/24 00:38:04;;;;;;;6.47;2.42;;;;;;;17.08;79.90;99086.97;342932;28;1007;-79
2022/10/24 00:38:15;;;;;;;4.45;2.38;;;;;;;17.08;79.87;99086.13;342839;28;1855;-79
2022/10/24 00:38:27;;;;;;;3.72;2.05;;;;;;;17.07;80.08;99090.53;343064;28;1485;-79
2022/10/24 00:38:40;;;;;;;6.30;2.15;;;;;;;17.07;79.85;99092.31;344001;28;1041;-79
2022/10/24 00:38:52;;;;;;;8.38;2.40;;;;;;;17.07;79.94;99082.66;343185;28;1490;-79
2022/10/24 00:39:04;;;;;;;6.80;2.40;;;;;;;17.08;80.01;99081.72;343776;28;1619;-79
2022/10/24 00:39:16;;;;;;;5.80;2.20;;;;;;;17.09;79.90;99088.66;343057;28;1548;-78
2022/10/24 00:39:28;;;;;;;5.60;2.10;;;;;;;17.07;80.12;99095.78;342069;28;1627;-78
2022/10/24 00:39:40;;;;;;;6.53;2.10;;;;;;;17.04;80.01;99095.97;342928;28;1722;-78
2022/10/24 00:39:51;;;;;;;6.82;2.30;;;;;;;17.04;80.08;99106.47;343933;28;1098;-78
2022/10/24 00:40:05;;;;;;;7.75;2.50;;;;;;;16.99;80.29;99103.34;343559;28;1270;-78
2022/10/24 00:40:18;;;;;;;6.78;2.88;;;;;;;17.01;80.45;99101.47;343818;28;1148;-78
2022/10/24 00:40:30;;;;;;;6.05;2.72;;;;;;;17.02;80.50;99102.28;345495;28;770;-78
2022/10/24 00:40:42;;;;;;;6.43;2.80;;;;;;;16.99;79.70;99098.09;344191;28;2033;-79
2022/10/24 00:40:54;;;;;;;5.57;2.30;;;;;;;16.94;80.64;99094.94;344810;28;2653;-79
2022/10/24 00:41:06;;;;;;;4.80;2.20;;;;;;;16.93;80.82;99094.09;345301;28;1034;-78
2022/10/24 00:41:28;;;;;;;6.88;2.40;;;;;;;16.97;80.56;99090.31;345490;28;1237;-79
2022/10/24 00:41:41;;;;;;;6.63;2.50;;;;;;;16.97;80.56;99090.31;345044;28;1024;-79
2022/10/24 00:41:57;;;;;;;5.43;2.42;;;;;;;16.96;80.60;99091.28;343485;28;1159;-79
2022/10/24 00:42:10;;;;;;;6.30;2.50;;;;;;;16.97;80.51;99089.47;343297;28;1071;-79
2022/10/24 00:42:22;;;;;;;8.55;2.60;;;;;;;16.98;80.40;99096.41;342074;28;1251;-79
2022/10/24 00:42:35;;;;;;;7.72;2.72;;;;;;;16.99;80.50;99092.84;342212;28;1066;-79
2022/10/24 00:42:47;;;;;;;10.05;2.72;;;;;;;17.01;80.47;99085.69;342532;28;1064;-79
2022/10/24 00:42:59;;;;;;;9.10;2.42;;;;;;;17.00;80.50;99089.25;340503;29;1855;-79
2022/10/24 00:43:21;;;;;;;7.30;2.30;;;;;;;17.03;80.22;99091.69;340983;29;1096;-79
2022/10/24 00:43:33;;;;;;;4.40;2.47;;;;;;;17.02;80.13;99087.38;340832;29;1307;-79
2022/10/24 00:43:45;;;;;;;4.45;2.63;;;;;;;16.99;80.20;99090.22;341474;29;1306;-79
2022/10/24 00:44:22;;;;;;;5.20;2.90;;;;;;;16.99;80.38;99084.97;342139;28;1059;-79
2022/10/24 00:44:38;;;;;;;9.38;2.60;;;;;;;17.01;80.28;99093.56;340793;29;1044;-79
2022/10/24 00:44:52;;;;;;;7.13;2.70;;;;;;;16.99;80.28;99092.84;341274;28;1805;-79
2022/10/24 00:45:34;;;;;;;6.18;2.40;;;;;;;17.01;80.17;99100.63;342107;28;997;-79
2022/10/24 00:46:01;;;;;;;7.60;2.40;;;;;;;17.01;80.05;99096.22;341006;29;1050;-79
2022/10/24 00:46:15;;;;;;;6.68;2.05;;;;;;;16.97;80.05;99107.88;342232;28;1049;-79
2022/10/24 00:46:27;;;;;;;8.00;2.20;;;;;;;16.94;80.40;99100.19;343062;28;1211;-79
2022/10/24 00:47:25;;;;;;;5.82;2.28;;;;;;;16.95;80.24;99099.25;345003;28;1159;-79
2022/10/24 00:47:37;;;;;;;7.25;2.17;;;;;;;16.99;80.18;99102.50;338220;29;1060;-79
2022/10/24 00:47:50;;;;;;;5.38;1.95;;;;;;;16.99;79.74;99102.50;339223;28;1384;-79
2022/10/24 00:48:09;;;;;;;6.88;2.40;;;;;;;16.98;79.81;99101.66;342663;28;1227;-79
2022/10/24 00:48:32;;;;;;;7.07;2.78;;;;;;;16.98;79.95;99099.03;343650;28;1262;-79
2022/10/24 00:48:47;;;;;;;5.75;2.10;;;;;;;16.99;79.95;99102.50;343948;28;1076;-79
2022/10/24 00:48:59;;;;;;;7.05;2.33;;;;;;;16.97;79.78;99095.56;343886;28;1060;-79
2022/10/24 00:49:14;;;;;;;6.60;2.40;;;;;;;16.95;80.03;99089.56;343786;28;1206;-79
2022/10/24 00:49:38;;;;;;;8.02;2.50;;;;;;;16.89;80.11;99094.41;342277;28;1169;-79
2022/10/24 00:49:59;;;;;;;13.35;2.42;;;;;;;16.85;80.30;99093.78;342284;28;1186;-79
2022/10/24 00:50:13;;;;;;;10.57;2.40;;;;;;;16.81;80.39;99091.44;342392;28;1034;-79
2022/10/24 00:50:25;;;;;;;8.32;2.65;;;;;;;16.80;80.39;99092.38;342354;28;896;-79
2022/10/24 00:50:37;;;;;;;8.98;3.00;;;;;;;16.74;80.50;99094.47;341746;28;1587;-79
2022/10/24 00:50:54;;;;;;;9.27;2.90;;;;;;;16.77;80.45;99090.78;343679;28;1087;-79
2022/10/24 00:51:24;;;;;;;7.53;2.50;;;;;;;16.73;80.51;99087.53;343656;28;1081;-79
2022/10/24 00:51:37;;;;;;;4.85;2.22;;;;;;;16.73;80.47;99092.78;343976;28;1032;-79
2022/10/24 00:51:55;;;;;;;6.85;2.10;;;;;;;16.76;80.42;99092.59;344037;28;1030;-79
2022/10/24 00:52:08;;;;;;;9.07;1.98;;;;;;;16.77;80.42;99089.00;343486;28;1070;-79
2022/10/24 00:52:25;;;;;;;7.97;2.20;;;;;;;16.78;80.48;99098.56;344217;28;1216;-79
2022/10/24 00:52:41;;;;;;;6.22;2.13;;;;;;;16.79;80.66;99091.53;344761;28;1197;-79
2022/10/24 00:52:54;;;;;;;6.10;2.00;;;;;;;16.80;80.28;99093.19;345237;28;1229;-79
2022/10/24 00:53:06;;;;;;;7.30;2.33;;;;;;;16.80;80.32;99092.38;344325;28;1844;-79
2022/10/24 00:53:20;;;;;;;8.30;2.38;;;;;;;16.77;80.08;99094.25;344132;28;1298;-79
2022/10/24 00:53:36;;;;;;;6.78;2.15;;;;;;;16.75;80.31;99093.50;344633;28;1480;-79
2022/10/24 00:53:51;;;;;;;5.53;2.28;;;;;;;16.72;80.28;99096.38;345308;28;1015;-79
2022/10/24 00:54:07;;;;;;;5.88;2.33;;;;;;;16.71;80.25;99089.41;345299;28;1261;-79
2022/10/24 00:54:20;;;;;;;5.78;2.30;;;;;;;16.71;80.41;99099.09;344586;28;2054;-79
2022/10/24 00:54:32;;;;;;;6.07;2.38;;;;;;;16.71;80.36;99093.84;344996;28;1547;-79
2022/10/24 00:54:45;;;;;;;7.25;2.20;;;;;;;16.71;80.23;99099.91;344591;28;1254;-79
2022/10/24 00:54:59;;;;;;;6.78;2.10;;;;;;;16.71;80.55;99099.91;343550;28;890;-79
2022/10/24 00:55:13;;;;;;;5.18;2.20;;;;;;;16.70;80.56;99097.38;344779;28;1055;-79
2022/10/24 00:55:25;;;;;;;6.38;2.40;;;;;;;16.67;80.49;99092.34;346392;28;1382;-79
2022/10/24 00:55:37;;;;;;;6.43;2.42;;;;;;;16.65;80.68;99095.06;346601;28;1211;-79
2022/10/24 00:55:52;;;;;;;5.63;2.65;;;;;;;16.64;80.80;99098.66;346854;28;740;-79
2022/10/24 00:56:06;;;;;;;5.88;2.67;;;;;;;16.62;81.08;99089.19;346358;28;1006;-79
2022/10/24 00:56:21;;;;;;;4.95;2.40;;;;;;;16.62;80.93;99094.44;345011;28;1260;-79
2022/10/24 00:56:38;;;;;;;5.18;2.22;;;;;;;16.59;80.94;99095.47;344877;28;1859;-79
2022/10/24 00:56:58;;;;;;;6.10;2.40;;;;;;;16.60;81.38;99086.69;345685;28;1068;-79
2022/10/24 00:57:20;;;;;;;6.30;2.42;;;;;;;16.60;81.07;99091.94;344389;28;1563;-79
2022/10/24 00:57:42;;;;;;;5.47;2.22;;;;;;;16.62;81.02;99092.69;343811;28;1071;-79
2022/10/24 00:58:00;;;;;;;4.25;2.22;;;;;;;16.62;80.84;99086.56;344875;28;1989;-79
2022/10/24 00:58:14;;;;;;;4.78;2.35;;;;;;;16.60;80.88;99086.69;345254;28;1030;-79
2022/10/24 00:58:29;;;;;;;7.43;2.22;;;;;;;16.61;80.99;99093.59;345143;28;1488;-79
2022/10/24 00:58:43;;;;;;;6.60;2.28;;;;;;;16.58;80.80;99083.31;344713;28;1400;-79
2022/10/24 00:58:56;;;;;;;5.72;2.30;;;;;;;16.60;80.88;99091.06;343622;28;1295;-79
2022/10/24 00:59:11;;;;;;;9.00;2.50;;;;;;;16.60;80.98;99094.56;343389;28;1047;-79
2022/10/24 00:59:24;;;;;;;9.13;2.50;;;;;;;16.58;81.03;99093.81;345193;28;1268;-79
2022/10/24 00:59:40;;;;;;;6.45;2.33;;;;;;;16.56;80.92;99091.28;343341;28;1206;-79
2022/10/24 00:59:56;;;;;;;7.25;2.20;;;;;;;16.53;81.18;99101.13;343649;28;1167;-79
2022/10/24 01:00:13;;;;;;;7.18;2.30;;;;;;;16.52;81.23;99099.44;343332;28;1582;-79
2022/10/24 01:00:31;;;;;;;6.15;2.67;;;;;;;16.55;81.09;99104.50;344696;28;1459;-79
2022/10/24 01:00:43;;;;;;;5.93;2.65;;;;;;;16.57;80.93;99095.59;345338;28;1197;-79
2022/10/24 01:00:56;;;;;;;7.75;2.47;;;;;;;16.57;80.87;99092.97;345224;28;1657;-79
2022/10/24 01:01:08;;;;;;;8.85;2.42;;;;;;;16.58;81.04;99089.41;344957;28;1280;-79
2022/10/24 01:01:20;;;;;;;8.10;2.50;;;;;;;16.58;80.97;99096.44;344930;28;1214;-79
2022/10/24 01:01:33;;;;;;;8.00;2.58;;;;;;;16.58;81.13;99099.06;345448;28;1067;-79
2022/10/24 01:01:46;;;;;;;6.68;2.42;;;;;;;16.58;80.99;99106.94;345119;28;1123;-79
2022/10/24 01:01:58;;;;;;;7.75;2.40;;;;;;;16.57;81.25;99097.38;344602;28;1056;-79
2022/10/24 01:02:10;;;;;;;7.25;2.30;;;;;;;16.56;81.22;99108.81;343718;28;1026;-79
2022/10/24 01:02:23;;;;;;;5.50;2.17;;;;;;;16.58;80.93;99109.56;343409;28;1258;-79
2022/10/24 01:02:35;;;;;;;4.70;2.13;;;;;;;16.58;80.74;99109.56;343620;28;1194;-79
2022/10/24 01:02:48;;;;;;;5.32;2.25;;;;;;;16.58;80.88;99110.41;342226;28;1307;-78
2022/10/24 01:03:01;;;;;;;8.00;2.30;;;;;;;16.59;81.11;99108.59;342126;28;1672;-79
2022/10/24 01:03:13;;;;;;;13.73;2.40;;;;;;;16.60;81.08;99109.44;343607;28;1670;-79
2022/10/24 01:03:25;;;;;;;12.50;2.50;;;;;;;16.61;81.08;99106.72;345029;28;1161;-79
2022/10/24 01:03:37;;;;;;;7.65;2.40;;;;;;;16.62;80.98;99105.78;345059;28;1055;-79
2022/10/24 01:03:49;;;;;;;7.45;2.35;;;;;;;16.61;81.15;99109.34;344476;28;1948;-79
2022/10/24 01:04:01;;;;;;;6.43;2.50;;;;;;;16.60;81.25;99102.44;344131;28;1509;-79
2022/10/24 01:04:14;;;;;;;5.72;2.60;;;;;;;16.61;81.25;99103.25;344943;28;1285;-79
2022/10/24 01:04:26;;;;;;;4.63;2.53;;;;;;;16.57;81.30;99110.50;345102;28;1119;-79
2022/10/24 01:04:38;;;;;;;4.82;2.38;;;;;;;16.58;81.11;99110.41;345255;28;2146;-79
2022/10/24 01:04:53;;;;;;;5.45;2.35;;;;;;;16.57;81.15;99108.69;345093;28;1683;-79